Flight Track Log - Related Links

Times and Time Zones

All times are in EDT time to prevent confusion due to time zone crossing. See the SWA3321 flight status page for this flight to view local times or setup timezone preferences in your user account.

Time Position Orientation Groundspeed Altitude Reporting Facility
EDT Latitude Longitude Course Direction KTS MPH feet Rate Location/Type
Thu 11:25:34 AM 28.4167 -81.3000 156° South 164 189 500  Level Orlando TRACON
Thu 11:26:53 AM 28.3500 -81.2667 156° South 229 264 2,900 2,075 Climbing Orlando TRACON
Thu 11:27:47 AM 28.3333 -81.2000 106° East 272 313 5,100 2,684 Climbing Orlando TRACON
Thu 11:28:47 AM 28.4000 -81.1833 12° North 284 327 8,000 2,159 Climbing Orlando TRACON
Thu 11:30:31 AM 28.5397 -81.2219 346° North 310 357 11,000 1,829 Climbing Jacksonville Center
Thu 11:31:31 AM 28.6403 -81.2508 346° North 349 402 13,000 2,250 Climbing Jacksonville Center
Thu 11:32:31 AM 28.7472 -81.2822 346° North 371 427 15,500 2,500 Climbing Jacksonville Center
Thu 11:33:31 AM 28.8519 -81.3139 345° North 385 443 18,000 2,500 Climbing Jacksonville Center
Thu 11:34:31 AM 28.9628 -81.3478 345° North 397 457 20,500 2,350 Climbing Jacksonville Center
Thu 11:35:31 AM 29.0761 -81.3792 346° North 408 470 22,700 2,000 Climbing Jacksonville Center
Thu 11:36:31 AM 29.1931 -81.4011 351° North 421 484 24,500 1,700 Climbing Jacksonville Center
Thu 11:37:31 AM 29.3164 -81.4111 356° North 434 499 26,100 1,700 Climbing Jacksonville Center
Thu 11:38:31 AM 29.4417 -81.4211 356° North 444 511 27,900 1,850 Climbing Jacksonville Center
Thu 11:39:31 AM 29.5631 -81.4314 356° North 439 505 29,800 1,950 Climbing Jacksonville Center
Thu 11:40:31 AM 29.6842 -81.4439 355° North 444 511 31,800 1,900 Climbing Jacksonville Center
Thu 11:41:31 AM 29.7992 -81.4542 356° North 430 495 33,600 1,300 Climbing Jacksonville Center
Thu 11:42:31 AM 29.9183 -81.4667 355° North 425 489 34,400 700 Climbing Jacksonville Center
Thu 11:43:31 AM 30.0331 -81.4769 356° North 418 481 35,000 300 Climbing Jacksonville Center
Thu 11:44:31 AM 30.1544 -81.4897 355° North 424 488 35,000  Level Jacksonville Center
Thu 11:45:31 AM 30.2694 -81.5000 356° North 424 488 35,000  Level Jacksonville Center
Thu 11:46:31 AM 30.3906 -81.5031 359° North 424 488 35,000  Level Jacksonville Center
Thu 11:47:31 AM 30.5072 -81.4917 North 424 488 35,000  Level Jacksonville Center
Thu 11:48:31 AM 30.6261 -81.4828 North 419 482 35,000  Level Jacksonville Center
Thu 11:49:31 AM 30.7472 -81.4761 North 424 488 35,000  Level Jacksonville Center
Thu 11:50:31 AM 30.8639 -81.4647 North 424 488 35,000  Level Jacksonville Center
Thu 11:51:31 AM 30.9872 -81.4581 North 429 494 35,000  Level Jacksonville Center
Thu 11:52:31 AM 31.1014 -81.4197 16° North 420 483 35,000  Level Jacksonville Center
Thu 11:53:31 AM 31.2156 -81.3597 24° Northeast 437 503 35,000  Level Jacksonville Center
Thu 11:54:31 AM 31.3275 -81.2972 25° Northeast 437 503 35,000  Level Jacksonville Center
Thu 11:55:31 AM 31.4250 -81.2419 26° Northeast 437 503 35,000  Level Jacksonville Center
Thu 11:56:31 AM 31.5494 -81.1739 25° Northeast 442 509 35,000  Level Jacksonville Center
Thu 11:57:31 AM 31.6614 -81.1108 26° Northeast 442 509 35,000  Level Jacksonville Center
Thu 11:58:31 AM 31.7731 -81.0500 25° Northeast 443 510 35,000  Level Jacksonville Center
Thu 11:59:31 AM 31.8747 -80.9967 24° Northeast 436 502 35,000  Level Jacksonville Center
Thu 12:00:31 PM 31.9886 -80.9356 24° Northeast 436 502 35,000  Level Jacksonville Center
Thu 12:01:31 PM 32.1086 -80.8667 26° Northeast 436 502 35,000  Level Jacksonville Center
Thu 12:02:31 PM 32.2203 -80.8078 24° Northeast 436 502 35,000  Level Jacksonville Center
Thu 12:03:31 PM 32.3300 -80.7439 26° Northeast 436 502 35,000 450 Level Jacksonville Center
Thu 12:04:31 PM 32.4417 -80.6819 25° Northeast 436 502 35,900 950 Climbing Jacksonville Center
Thu 12:05:31 PM 32.5511 -80.6203 25° Northeast 437 503 36,900 550 Climbing Jacksonville Center
Thu 12:06:31 PM 32.6628 -80.5583 25° Northeast 442 509 37,000 50 Climbing Jacksonville Center
Thu 12:07:31 PM 32.7722 -80.4961 26° Northeast 437 503 37,000  Level Jacksonville Center
Thu 12:08:31 PM 32.8858 -80.4336 25° Northeast 437 503 37,000  Level Jacksonville Center
Thu 12:09:31 PM 32.9972 -80.3661 27° Northeast 443 510 37,000  Level Jacksonville Center
Thu 12:10:31 PM 33.1086 -80.3061 24° Northeast 439 505 37,000  Level Jacksonville Center
Thu 12:11:31 PM 33.2161 -80.2508 23° Northeast 445 512 37,000  Level Jacksonville Center
Thu 12:12:31 PM 33.3272 -80.1831 27° Northeast 445 512 37,000  Level Jacksonville Center
Thu 12:13:31 PM 33.4408 -80.1197 25° Northeast 445 512 37,000  Level Jacksonville Center
Thu 12:14:31 PM 33.5542 -80.0539 26° Northeast 445 512 37,000  Level Jacksonville Center
Thu 12:15:31 PM 33.6694 -79.9853 26° Northeast 445 512 37,000  Level Jacksonville Center
Thu 12:16:31 PM 33.7847 -79.9214 25° Northeast 445 512 37,000  Level Jacksonville Center
Thu 12:17:31 PM 33.9000 -79.8525 26° Northeast 445 512 37,000  Level Jacksonville Center
Thu 12:18:31 PM 34.0172 -79.7833 26° Northeast 457 526 37,000  Level Jacksonville Center
Thu 12:19:31 PM 34.1344 -79.7164 25° Northeast 457 526 37,000  Level Jacksonville Center
Thu 12:20:31 PM 34.2475 -79.6494 26° Northeast 457 526 37,000  Level Jacksonville Center
Thu 12:22:11 PM 34.4422 -79.5481 23° Northeast 465 535 37,000  Level Washington Center
Thu 12:23:11 PM 34.5569 -79.4856 24° Northeast 460 529 37,000  Level Washington Center
Thu 12:24:11 PM 34.6781 -79.4231 23° Northeast 460 529 37,000  Level Washington Center
Thu 12:25:11 PM 34.7989 -79.3631 22° Northeast 460 529 37,000  Level Washington Center
Thu 12:26:11 PM 34.9175 -79.3003 23° Northeast 460 529 37,000  Level Washington Center
Thu 12:27:11 PM 35.0386 -79.2347 24° Northeast 460 529 37,000  Level Washington Center
Thu 12:28:11 PM 35.1572 -79.1714 24° Northeast 460 529 37,000  Level Washington Center
Thu 12:29:12 PM 35.2781 -79.1081 23° Northeast 460 529 37,000  Level Washington Center
Thu 12:30:11 PM 35.4011 -79.0422 24° Northeast 466 536 37,000  Level Washington Center
Thu 12:31:11 PM 35.5219 -78.9786 23° Northeast 461 531 37,000  Level Washington Center
Thu 12:32:11 PM 35.6553 -78.9100 23° Northeast 467 537 37,000  Level Washington Center
Thu 12:33:11 PM 35.7761 -78.8408 25° Northeast 467 537 37,000  Level Washington Center
Thu 12:34:11 PM 35.8928 -78.7714 26° Northeast 462 532 37,000  Level Washington Center
Thu 12:35:11 PM 36.0017 -78.6756 35° Northeast 462 532 37,000  Level Washington Center
Thu 12:36:11 PM 36.1042 -78.5844 36° Northeast 468 539 37,000  Level Washington Center
Thu 12:37:11 PM 36.2108 -78.4906 35° Northeast 463 533 37,000  Level Washington Center
Thu 12:38:11 PM 36.3172 -78.3967 35° Northeast 463 533 37,000  Level Washington Center
Thu 12:39:11 PM 36.4236 -78.3050 35° Northeast 463 533 37,000  Level Washington Center
Thu 12:40:11 PM 36.5281 -78.2103 36° Northeast 463 533 37,000  Level Washington Center
Thu 12:41:11 PM 36.6303 -78.1156 37° Northeast 463 533 37,000  Level Washington Center
Thu 12:42:11 PM 36.7344 -78.0231 35° Northeast 456 525 37,000  Level Washington Center
Thu 12:43:11 PM 36.8386 -77.9275 36° Northeast 456 525 37,000  Level Washington Center
Thu 12:44:11 PM 36.9222 -77.8056 49° Northeast 456 525 37,000  Level Washington Center
Thu 12:45:11 PM 36.9997 -77.6750 53° Northeast 451 519 37,000  Level Washington Center
Thu 12:46:11 PM 37.0831 -77.5522 50° Northeast 458 527 37,000  Level Washington Center
Thu 12:47:11 PM 37.1847 -77.4611 36° Northeast 452 520 37,000  Level Washington Center
Thu 12:48:11 PM 37.2906 -77.3617 37° Northeast 452 520 37,000  Level Washington Center
Thu 12:49:11 PM 37.3939 -77.2675 36° Northeast 457 526 37,000  Level Washington Center
Thu 12:50:11 PM 37.4994 -77.1756 35° Northeast 457 526 37,000  Level Washington Center
Thu 12:51:11 PM 37.6008 -77.0753 38° Northeast 457 526 37,000  Level Washington Center
Thu 12:52:11 PM 37.7000 -76.9803 37° Northeast 457 526 37,000  Level Washington Center
Thu 12:53:11 PM 37.8014 -76.8847 37° Northeast 452 520 37,000  Level Washington Center
Thu 12:54:11 PM 37.9025 -76.7892 37° Northeast 452 520 37,000  Level Washington Center
Thu 12:55:11 PM 38.0014 -76.6958 37° Northeast 452 520 37,000  Level Washington Center
Thu 12:56:11 PM 38.1022 -76.6025 36° Northeast 447 514 37,000  Level Washington Center
Thu 12:57:11 PM 38.2011 -76.5058 38° Northeast 436 502 37,000  Level Washington Center
Thu 12:58:11 PM 38.3017 -76.4067 38° Northeast 441 507 37,000  Level Washington Center
Thu 12:59:11 PM 38.3900 -76.3256 36° Northeast 441 507 37,000  Level Washington Center
Thu 01:00:11 PM 38.5011 -76.2178 37° Northeast 447 514 37,000  Level Washington Center
Thu 01:01:11 PM 38.5972 -76.1308 35° Northeast 447 514 37,000  Level Washington Center
Thu 01:02:11 PM 38.6958 -76.0333 38° Northeast 452 520 37,000  Level Washington Center
Thu 01:03:11 PM 38.7939 -75.9353 38° Northeast 452 520 37,000  Level Washington Center
Thu 01:04:11 PM 38.8942 -75.8369 37° Northeast 452 520 37,000  Level Washington Center
Thu 01:05:11 PM 38.9925 -75.7411 37° Northeast 452 520 37,000  Level Washington Center
Thu 01:06:11 PM 39.0947 -75.6478 35° Northeast 452 520 37,000  Level Washington Center
Thu 01:07:11 PM 39.1947 -75.5542 36° Northeast 452 520 37,000  Level Washington Center
Thu 01:08:11 PM 39.2947 -75.4603 36° Northeast 452 520 37,000  Level Washington Center
Thu 01:09:11 PM 39.3967 -75.3686 35° Northeast 452 520 37,000  Level Washington Center
Thu 01:10:11 PM 39.5006 -75.2742 35° Northeast 447 514 37,000  Level Washington Center
Thu 01:11:11 PM 39.6003 -75.1850 35° Northeast 447 514 37,000  Level Washington Center
Thu 01:13:35 PM 39.8517 -74.9594 35° Northeast 453 521 37,000  Level New York Center
Thu 01:14:35 PM 39.9489 -74.8622 37° Northeast 442 509 37,000  Level New York Center
Thu 01:15:36 PM 40.0300 -74.7450 48° Northeast 437 503 37,000  Level New York Center
Thu 01:16:34 PM 40.1153 -74.6250 47° Northeast 437 503 37,000  Level New York Center
Thu 01:17:35 PM 40.1983 -74.5047 48° Northeast 448 516 37,000  Level New York Center
Thu 01:18:34 PM 40.2847 -74.4086 40° Northeast 448 516 37,000  Level New York Center
Thu 01:19:35 PM 40.3817 -74.3019 40° Northeast 448 516 37,000  Level New York Center
Thu 01:20:35 PM 40.4783 -74.2006 39° Northeast 443 510 37,000  Level New York Center
Thu 01:21:36 PM 40.5967 -74.1492 18° North 432 497 37,000  Level New York Center
Thu 01:23:13 PM 40.8019 -74.1236 North 450 518 37,000  Level Boston Center
Thu 01:24:13 PM 40.9250 -74.1047 North 450 518 37,000  Level Boston Center
Thu 01:25:26 PM 41.0839 -74.0814 North 444 511 37,000  Level Boston Center
Thu 01:26:27 PM 41.2072 -74.0597 North 444 511 37,000  Level Boston Center
Thu 01:27:25 PM 41.3303 -74.0406 North 443 510 37,000  Level Boston Center
Thu 01:28:25 PM 41.4536 -74.0189 North 448 516 37,000 -443 Level Boston Center
Thu 01:29:27 PM 41.5811 -73.9969 North 448 516 36,100 -958 Descending Boston Center
Thu 01:30:24 PM 41.7042 -73.9778 North 448 516 35,100 -966 Descending Boston Center
Thu 01:31:25 PM 41.8150 -73.9608 North 448 516 34,200 -1,033 Descending Boston Center
Thu 01:32:26 PM 41.9528 -73.9364 North 448 516 33,000 -1,770 Descending Boston Center
Thu 01:33:27 PM 42.0636 -73.9194 North 448 516 30,600 -2,420 Descending Boston Center
Thu 01:34:25 PM 42.1586 -73.8153 39° Northeast 424 488 28,200 -1,916 Descending Boston Center
Thu 01:35:26 PM 42.2294 -73.6458 61° Northeast 424 488 26,800 -1,230 Descending Boston Center
Thu 01:36:27 PM 42.2869 -73.5094 60° Northeast 424 488 25,700 -1,017 Descending Boston Center
Thu 01:37:24 PM 42.3361 -73.3894 61° Northeast 415 478 24,800 -1,000 Descending Boston Center
Thu 01:38:27 PM 42.4017 -73.2331 60° Northeast 420 483 23,700 -1,041 Descending Boston Center
Thu 01:39:25 PM 42.4569 -73.1042 60° Northeast 405 466 22,700 -1,017 Descending Boston Center
Thu 01:40:25 PM 42.5139 -72.9697 60° Northeast 405 466 21,700 -947 Descending Boston Center
Thu 01:41:38 PM 42.5664 -72.8403 61° Northeast 398 458 20,600 -1,398 Descending Boston Center
Thu 01:42:38 PM 42.6314 -72.6883 60° Northeast 393 452 18,600 -1,636 Descending Boston Center
Thu 01:43:39 PM 42.6817 -72.5700 60° Northeast 379 436 17,300 -1,587 Descending Boston Center
Thu 01:44:39 PM 42.7317 -72.4458 61° Northeast 372 428 15,400 -1,881 Descending Boston Center
Thu 01:45:37 PM 42.7817 -72.3242 61° Northeast 367 422 13,600 -1,815 Descending Boston Center
Thu 01:46:38 PM 42.8022 -72.1883 78° East 362 417 11,800 -1,623 Descending Boston Center
Thu 01:47:39 PM 42.8228 -72.0778 76° East 352 405 10,300 -1,373 Descending Boston Center
Thu 01:48:36 PM 42.8767 -71.9669 56° Northeast 324 373 9,100 -1,373 Descending Boston Center
Thu 01:49:37 PM 42.9200 -71.8758 57° Northeast 312 359 7,600 -1,438 Descending Boston Center
Thu 01:50:37 PM 42.9717 -71.7789 54° Northeast 294 338 6,200 -1,190 Descending Boston Center
Thu 01:51:38 PM 43.0086 -71.6992 58° Northeast 283 326 5,200 -744 Descending Boston Center
Thu 01:52:38 PM 43.0350 -71.6050 69° East 247 284 4,700 -500 Descending Boston Center
Thu 01:53:38 PM 43.0492 -71.5453 72° East 201 231 4,200 -915 Descending Boston Center
Thu 01:54:36 PM 43.0322 -71.4972 116° Southeast 152 175 2,900 -1,261 Descending Boston Center
Thu 01:55:37 PM 42.9964 -71.4722 153° Southeast 141 162 1,700 -1,082 Descending Boston Center
Thu 01:56:38 PM 42.9567 -71.4500 158° South 146 168 700 -639 Descending Boston Center
Thu 01:57:39 PM 42.9211 -71.4281 156° South 146 168 400 9,074 Descending Boston Center
Thu 01:58:39 PM 42.8833 -71.4086 159° South 146 168 19,000 9,458 Climbing Boston Center
Thu 01:59:37 PM 42.8478 -71.3867 156° South 146 168 19,000  Level Boston Center
Thu 02:01:00 PM 42.9167 -71.4333 270° West  Level FlightAware Approximate
Thu 02:08:00 PM 42.9328 -71.4358 270° West  Level Estimated
Thu 02:09:00 PM 42.9328 -71.4358 270° West  Level Estimated
Thu 02:10:00 PM 42.9328 -71.4358 270° West  Level Estimated
Thu 02:11:00 PM 42.9328 -71.4358 270° West  Level Estimated
Thu 02:12:00 PM 42.9328 -71.4358 270° West  Level Estimated
Thu 02:13:00 PM 42.9328 -71.4358 270° West  Level Estimated

Login

Don't have an account? Register now (free) for customized features, flight alerts, and more!